createdAt,value
2018-02-10T00:02:01.915Z,9.23
2018-02-10T00:04:29.510Z,6.80
2018-02-10T00:06:57.140Z,7.20
2018-02-10T00:09:24.777Z,7.53
2018-02-10T00:11:53.215Z,7.80
2018-02-10T00:14:20.808Z,10.33
2018-02-10T00:16:48.466Z,8.43
2018-02-10T00:19:16.049Z,7.23
2018-02-10T00:21:44.430Z,8.40
2018-02-10T00:24:12.035Z,7.17
2018-02-10T00:26:39.686Z,8.77
2018-02-10T00:29:07.271Z,7.80
2018-02-10T00:31:34.886Z,13.03
2018-02-10T00:34:02.504Z,3.93
2018-02-10T00:36:30.165Z,13.07
2018-02-10T00:38:57.757Z,7.30
2018-02-10T00:41:25.403Z,7.57
2018-02-10T00:43:53.057Z,7.03
2018-02-10T00:46:20.698Z,8.30
2018-02-10T00:48:48.308Z,10.20
2018-02-10T00:51:15.922Z,12.50
2018-02-10T00:53:43.513Z,11.83
2018-02-10T00:56:11.568Z,5.23
2018-02-10T00:58:39.211Z,14.60
2018-02-10T01:01:06.809Z,9.27
2018-02-10T01:03:34.428Z,12.17
2018-02-10T01:06:02.822Z,10.87
2018-02-10T01:08:31.190Z,10.27
2018-02-10T01:10:59.553Z,7.97
2018-02-10T01:13:27.181Z,10.53
2018-02-10T01:15:54.771Z,11.27
2018-02-10T01:18:22.915Z,7.40
2018-02-10T01:20:50.538Z,9.77
2018-02-10T01:23:18.173Z,7.93
2018-02-10T01:25:45.758Z,9.80
2018-02-10T01:28:13.376Z,8.70
2018-02-10T01:30:41.001Z,5.03
2018-02-10T01:33:08.631Z,5.77
2018-02-10T01:35:36.226Z,11.60
2018-02-10T01:38:04.646Z,7.10
2018-02-10T01:40:32.262Z,6.43
2018-02-10T01:43:00.640Z,3.13
2018-02-10T01:45:28.265Z,11.03
2018-02-10T01:47:55.886Z,6.97
2018-02-10T01:50:23.503Z,6.40
2018-02-10T01:52:51.154Z,6.03
2018-02-10T01:55:18.738Z,5.43
2018-02-10T01:57:47.114Z,6.50
2018-02-10T02:00:14.694Z,4.57
2018-02-10T02:02:42.302Z,7.83
2018-02-10T02:05:09.959Z,4.87
2018-02-10T02:07:37.546Z,2.80
2018-02-10T02:10:05.163Z,4.47
2018-02-10T02:12:33.510Z,7.07
2018-02-10T02:15:01.154Z,4.40
2018-02-10T02:17:28.736Z,2.90
2018-02-10T02:19:56.402Z,5.37
2018-02-10T02:22:23.990Z,2.17
2018-02-10T02:24:52.342Z,5.83
2018-02-10T02:27:19.961Z,4.47
2018-02-10T02:29:47.593Z,6.63
2018-02-10T02:32:15.214Z,4.80
2018-02-10T02:34:42.855Z,9.17
2018-02-10T02:37:10.447Z,7.67
2018-02-10T02:39:38.071Z,7.60
2018-02-10T02:42:05.684Z,12.37
2018-02-10T02:44:33.354Z,6.77
2018-02-10T02:47:00.938Z,4.97
2018-02-10T02:49:28.567Z,6.73
2018-02-10T02:51:56.199Z,6.40
2018-02-10T02:54:23.773Z,7.27
2018-02-10T02:56:51.355Z,5.50
2018-02-10T02:59:19.018Z,4.67
2018-02-10T03:01:46.605Z,5.90
2018-02-10T03:04:14.226Z,3.80
2018-02-10T03:06:42.675Z,8.97
2018-02-10T03:09:12.154Z,5.60
2018-02-10T03:11:39.791Z,7.10
2018-02-10T03:14:07.433Z,3.70
2018-02-10T03:16:35.047Z,6.03
2018-02-10T03:19:02.638Z,5.70
2018-02-10T03:21:31.025Z,3.97
2018-02-10T03:23:58.650Z,4.23
2018-02-10T03:26:26.225Z,2.73
2018-02-10T03:28:53.808Z,4.17
2018-02-10T03:31:22.192Z,2.70
2018-02-10T03:33:50.558Z,4.00
2018-02-10T03:36:19.675Z,1.57
2018-02-10T03:38:47.289Z,2.40
2018-02-10T03:41:14.887Z,1.33
2018-02-10T03:43:42.562Z,1.47
2018-02-10T03:46:10.930Z,2.67
2018-02-10T03:48:40.054Z,2.77
2018-02-10T03:51:07.654Z,3.20
2018-02-10T03:53:35.262Z,3.87
2018-02-10T03:56:02.898Z,5.00
2018-02-10T03:58:30.485Z,6.53
2018-02-10T04:00:58.205Z,4.27
2018-02-10T04:03:25.821Z,4.97
2018-02-10T04:05:53.413Z,5.43
2018-02-10T04:08:21.023Z,1.23
2018-02-10T04:10:48.692Z,3.47
2018-02-10T04:13:16.347Z,2.97
2018-02-10T04:15:43.941Z,3.30
2018-02-10T04:18:11.533Z,2.23
2018-02-10T04:20:39.150Z,3.30
2018-02-10T04:23:06.781Z,2.60
2018-02-10T04:25:34.382Z,2.63
2018-02-10T04:28:02.011Z,4.47
2018-02-10T04:30:29.635Z,3.97
2018-02-10T04:32:58.035Z,6.07
2018-02-10T04:35:25.748Z,7.90
2018-02-10T04:37:53.337Z,11.33
2018-02-10T04:40:21.718Z,7.93
2018-02-10T04:42:50.069Z,8.07
2018-02-10T04:45:17.714Z,6.50
2018-02-10T04:47:45.331Z,8.60
2018-02-10T04:50:13.724Z,5.67
2018-02-10T04:52:41.350Z,8.07
2018-02-10T04:55:08.957Z,10.30
2018-02-10T04:57:36.595Z,3.70
2018-02-10T05:00:07.281Z,4.80
2018-02-10T05:02:34.872Z,7.43
2018-02-10T05:05:02.476Z,7.80
2018-02-10T05:07:30.109Z,5.90
2018-02-10T05:09:57.708Z,4.93
2018-02-10T05:12:25.291Z,8.10
2018-02-10T05:14:52.902Z,9.67
2018-02-10T05:17:20.538Z,5.90
2018-02-10T05:19:48.157Z,9.30
2018-02-10T05:22:15.787Z,9.77
2018-02-10T05:24:43.406Z,6.07
2018-02-10T05:27:11.029Z,7.10
2018-02-10T05:29:39.419Z,4.33
2018-02-10T05:32:07.005Z,3.87
2018-02-10T05:34:35.279Z,6.80
2018-02-10T05:37:02.866Z,5.73
2018-02-10T05:39:30.528Z,6.40
2018-02-10T05:41:58.146Z,5.83
2018-02-10T05:44:26.574Z,16.20
2018-02-10T05:46:54.221Z,15.07
2018-02-10T05:49:21.818Z,9.40
2018-02-10T05:51:49.418Z,7.03
2018-02-10T05:54:17.068Z,7.93
2018-02-10T05:56:44.700Z,3.73
2018-02-10T05:59:12.324Z,5.73
2018-02-10T06:01:40.671Z,5.03
2018-02-10T06:04:08.488Z,5.17
2018-02-10T06:06:36.085Z,7.40
2018-02-10T06:09:03.734Z,7.97
2018-02-10T06:11:31.362Z,5.27
2018-02-10T06:13:59.019Z,7.33
2018-02-10T06:16:26.612Z,6.13
2018-02-10T06:18:54.237Z,7.23
2018-02-10T06:21:22.609Z,12.40
2018-02-10T06:23:51.770Z,11.23
2018-02-10T06:26:19.413Z,7.73
2018-02-10T06:28:47.028Z,4.60
2018-02-10T06:31:14.633Z,6.57
2018-02-10T06:33:42.253Z,8.07
2018-02-10T06:36:09.838Z,4.40
2018-02-10T06:38:37.462Z,7.20
2018-02-10T06:41:05.072Z,6.03
2018-02-10T06:43:33.445Z,7.47
2018-02-10T06:46:01.022Z,9.87
2018-02-10T06:48:29.432Z,6.80
2018-02-10T06:50:57.765Z,8.33
2018-02-10T06:53:26.142Z,8.07
2018-02-10T06:55:53.743Z,10.10
2018-02-10T06:58:21.368Z,5.07
2018-02-10T07:00:49.589Z,6.23
2018-02-10T07:03:17.873Z,5.20
2018-02-10T07:05:46.321Z,5.20
2018-02-10T07:08:13.922Z,5.90
2018-02-10T07:10:42.284Z,5.63
2018-02-10T07:13:10.446Z,3.97
2018-02-10T07:15:38.825Z,8.73
2018-02-10T07:18:08.040Z,6.40
2018-02-10T07:20:36.087Z,5.60
2018-02-10T07:23:15.189Z,4.10
2018-02-10T07:25:44.082Z,7.73
2018-02-10T07:28:11.947Z,4.90
2018-02-10T07:30:40.202Z,6.30
2018-02-10T07:33:11.656Z,4.53
2018-02-10T07:35:40.750Z,4.97
2018-02-10T07:38:13.546Z,6.17
2018-02-10T07:40:41.771Z,5.30
2018-02-10T07:43:09.601Z,4.53
2018-02-10T07:45:38.018Z,2.37
2018-02-10T07:48:13.620Z,6.30
2018-02-10T07:50:41.225Z,5.13
2018-02-10T07:53:13.032Z,2.63
2018-02-10T07:55:42.494Z,6.57
2018-02-10T07:58:10.573Z,8.93
2018-02-10T08:00:43.199Z,6.93
2018-02-10T08:03:11.376Z,6.30
2018-02-10T08:05:41.305Z,8.13
2018-02-10T08:08:11.802Z,4.53
2018-02-10T08:10:42.646Z,5.43
2018-02-10T08:13:14.217Z,9.97
2018-02-10T08:15:43.157Z,8.10
2018-02-10T08:18:11.040Z,9.27
2018-02-10T08:20:39.965Z,6.07
2018-02-10T08:23:08.311Z,4.70
2018-02-10T08:25:36.306Z,2.07
2018-02-10T08:28:05.529Z,4.07
2018-02-10T08:30:34.267Z,6.07
2018-02-10T08:33:01.950Z,5.20
2018-02-10T08:35:30.545Z,5.57
2018-02-10T08:37:59.332Z,5.97
2018-02-10T08:40:28.299Z,5.23
2018-02-10T08:42:56.609Z,9.63
2018-02-10T08:45:24.810Z,6.43
2018-02-10T08:47:53.802Z,5.20
2018-02-10T08:50:24.761Z,6.43
2018-02-10T08:52:54.113Z,4.97
2018-02-10T08:55:22.202Z,7.90
2018-02-10T08:57:51.330Z,6.90
2018-02-10T09:00:19.387Z,6.77
2018-02-10T09:02:47.964Z,4.83
2018-02-10T09:05:16.672Z,3.43
2018-02-10T09:07:48.198Z,9.37
2018-02-10T09:10:16.543Z,7.73
2018-02-10T09:12:45.273Z,6.43
2018-02-10T09:15:13.520Z,8.63
2018-02-10T09:17:41.922Z,6.70
2018-02-10T09:20:09.944Z,6.07
2018-02-10T09:22:39.119Z,5.07
2018-02-10T09:25:07.207Z,6.23
2018-02-10T09:27:35.804Z,11.27
2018-02-10T09:30:07.412Z,5.67
2018-02-10T09:32:35.651Z,9.20
2018-02-10T09:35:03.345Z,5.73
2018-02-10T09:37:32.522Z,2.93
2018-02-10T09:40:00.681Z,9.60
2018-02-10T09:42:31.945Z,5.13
2018-02-10T09:45:00.815Z,5.53
2018-02-10T09:47:29.196Z,6.10
2018-02-10T09:49:59.663Z,5.50
2018-02-10T09:52:28.230Z,2.47
2018-02-10T09:54:56.375Z,7.70
2018-02-10T09:57:25.616Z,2.23
2018-02-10T09:59:53.675Z,4.37
2018-02-10T10:02:22.031Z,3.87
2018-02-10T10:04:51.667Z,7.07
2018-02-10T10:07:19.979Z,4.30
2018-02-10T10:09:48.417Z,5.40
2018-02-10T10:12:16.439Z,4.67
2018-02-10T10:14:44.758Z,3.50
2018-02-10T10:17:12.777Z,5.83
2018-02-10T10:19:41.922Z,3.33
2018-02-10T10:22:10.363Z,3.60
2018-02-10T10:24:38.822Z,7.10
2018-02-10T10:27:10.980Z,6.07
2018-02-10T10:29:39.426Z,5.70
2018-02-10T10:32:07.603Z,8.00
2018-02-10T10:34:35.709Z,7.17
2018-02-10T10:37:03.454Z,2.07
2018-02-10T10:39:35.277Z,5.27
2018-02-10T11:10:13.418Z,2.47
2018-02-10T11:12:41.569Z,2.37
2018-02-10T11:15:09.586Z,3.40
2018-02-10T11:17:37.933Z,4.53
2018-02-10T11:20:06.169Z,2.43
2018-02-10T11:22:34.496Z,2.07
2018-02-10T11:25:06.125Z,2.83
2018-02-10T11:27:35.407Z,3.87
2018-02-10T11:30:03.302Z,4.93
2018-02-10T11:32:31.515Z,3.00
2018-02-10T11:35:02.580Z,3.83
2018-02-10T11:37:31.283Z,4.07
2018-02-10T11:39:59.644Z,4.00
2018-02-10T11:42:28.933Z,3.93
2018-02-10T11:45:01.892Z,2.17
2018-02-10T11:47:30.197Z,6.80
2018-02-10T11:50:00.554Z,5.30
2018-02-10T11:52:28.827Z,3.07
2018-02-10T11:54:58.181Z,4.07
2018-02-10T11:57:26.499Z,2.57
2018-02-10T11:59:55.301Z,1.60
2018-02-10T12:02:23.500Z,1.60
2018-02-10T12:04:51.234Z,2.90
2018-02-10T12:07:20.236Z,2.30
2018-02-10T12:09:49.207Z,1.47
2018-02-10T12:12:17.249Z,4.97
2018-02-10T12:14:46.251Z,2.07
2018-02-10T12:17:14.323Z,2.00
2018-02-10T12:19:42.511Z,3.80
2018-02-10T12:22:10.802Z,1.10
2018-02-10T12:24:38.982Z,3.13
2018-02-10T12:27:07.298Z,1.93
2018-02-10T12:29:35.514Z,1.80
2018-02-10T12:32:03.380Z,3.30
2018-02-10T12:34:31.446Z,3.07
2018-02-10T12:36:59.882Z,1.53
2018-02-10T12:39:28.838Z,3.87
2018-02-10T12:41:57.169Z,2.17
2018-02-10T12:44:25.093Z,2.33
2018-02-10T12:46:54.726Z,0.70
2018-02-10T12:49:28.591Z,3.43
2018-02-10T12:51:57.555Z,1.10
2018-02-10T12:54:25.668Z,1.50
2018-02-10T12:56:54.521Z,2.60
2018-02-10T12:59:23.204Z,0.70
2018-02-10T13:01:51.960Z,3.10
2018-02-10T13:04:20.126Z,0.67
2018-02-10T13:06:48.555Z,1.47
2018-02-10T13:09:17.377Z,0.83
2018-02-10T13:11:47.161Z,0.57
2018-02-10T13:14:15.536Z,0.93
2018-02-10T13:16:44.749Z,0.97
2018-02-10T13:19:13.774Z,1.93
2018-02-10T13:21:42.668Z,3.13
2018-02-10T13:24:11.095Z,0.73
2018-02-10T13:26:39.638Z,0.83
2018-02-10T13:29:08.311Z,1.67
2018-02-10T13:31:37.386Z,1.60
2018-02-10T13:34:05.482Z,1.07
2018-02-10T13:36:34.773Z,0.60
2018-02-10T13:39:04.106Z,1.50
2018-02-10T13:41:32.150Z,1.00
2018-02-10T13:44:01.006Z,1.03
2018-02-10T13:46:29.008Z,1.23
2018-02-10T13:48:57.577Z,1.93
2018-02-10T13:51:26.571Z,2.90
2018-02-10T13:53:55.002Z,1.57
2018-02-10T13:56:23.303Z,1.00
2018-02-10T13:58:53.493Z,1.07
2018-02-10T14:01:21.158Z,0.87
2018-02-10T14:03:51.256Z,1.30
2018-02-10T14:06:20.298Z,0.70
2018-02-10T14:08:48.008Z,1.77
2018-02-10T14:11:16.094Z,3.37
2018-02-10T14:13:44.115Z,1.40
2018-02-10T14:16:12.168Z,0.77
2018-02-10T14:18:41.470Z,2.47
2018-02-10T14:21:10.576Z,6.20
2018-02-10T14:23:39.436Z,3.07
2018-02-10T14:26:07.630Z,2.13
2018-02-10T14:28:37.622Z,1.50
2018-02-10T14:31:06.773Z,0.83
2018-02-10T14:33:36.447Z,0.97
2018-02-10T14:36:04.183Z,1.80
2018-02-10T14:38:34.787Z,2.77
2018-02-10T14:41:03.136Z,1.23
2018-02-10T14:43:31.336Z,1.87
2018-02-10T14:45:59.171Z,1.43
2018-02-10T14:48:27.417Z,2.73
2018-02-10T14:50:55.382Z,2.03
2018-02-10T14:53:24.363Z,1.70
2018-02-10T14:55:52.765Z,1.23
2018-02-10T14:58:21.131Z,2.00
2018-02-10T15:00:50.148Z,1.17
2018-02-10T15:03:17.812Z,2.17
2018-02-10T15:05:45.991Z,2.03
2018-02-10T15:08:13.956Z,0.80
2018-02-10T15:10:42.264Z,0.80
2018-02-10T15:13:10.566Z,0.73
2018-02-10T15:15:39.605Z,1.67
2018-02-10T15:18:08.511Z,1.00
2018-02-10T15:20:36.704Z,1.40
2018-02-10T15:23:04.787Z,2.27
2018-02-10T15:25:33.162Z,2.47
2018-02-10T15:28:01.805Z,1.87
2018-02-10T15:30:42.791Z,18.27
2018-02-10T15:33:23.309Z,9.70
2018-02-10T15:35:51.321Z,6.63
2018-02-10T15:38:20.009Z,2.63
2018-02-10T15:40:48.918Z,1.93
2018-02-10T15:43:17.315Z,1.70
2018-02-10T15:45:45.632Z,0.57
2018-02-10T15:48:13.602Z,0.80
2018-02-10T15:50:42.289Z,1.17
2018-02-10T15:53:10.004Z,0.70
2018-02-10T15:55:39.883Z,1.30
2018-02-10T15:58:08.822Z,1.63
2018-02-10T16:00:37.115Z,1.27
2018-02-10T16:03:05.323Z,1.30
2018-02-10T16:05:33.963Z,1.23
2018-02-10T16:08:02.149Z,3.30
2018-02-10T16:10:30.535Z,1.33
2018-02-10T16:12:59.435Z,1.13
2018-02-10T16:15:27.382Z,1.30
2018-02-10T16:17:55.581Z,0.80
2018-02-10T16:20:23.222Z,0.87
2018-02-10T16:22:51.861Z,0.80
2018-02-10T16:25:20.103Z,0.73
2018-02-10T16:27:48.375Z,1.00
2018-02-10T16:30:16.707Z,0.90
2018-02-10T16:32:45.991Z,0.83
2018-02-10T16:35:14.595Z,1.13
2018-02-10T16:37:42.754Z,0.93
2018-02-10T16:40:11.025Z,1.00
2018-02-10T16:42:39.389Z,1.30
2018-02-10T16:45:07.596Z,1.07
2018-02-10T16:47:35.791Z,1.00
2018-02-10T16:50:04.129Z,1.33
2018-02-10T16:52:34.564Z,1.33
2018-02-10T16:55:02.649Z,1.17
2018-02-10T16:57:30.700Z,1.27
2018-02-10T17:00:00.074Z,1.40
2018-02-10T17:02:28.232Z,0.93
2018-02-10T17:04:57.658Z,1.00
2018-02-10T17:07:25.751Z,0.93
2018-02-10T17:09:53.698Z,0.90
2018-02-10T17:12:22.006Z,0.70
2018-02-10T17:14:49.639Z,1.23
2018-02-10T17:17:18.543Z,0.70
2018-02-10T17:19:47.337Z,2.90
2018-02-10T17:22:15.419Z,1.20
2018-02-10T17:24:44.015Z,1.90
2018-02-10T17:27:12.588Z,3.47
2018-02-10T17:29:40.952Z,3.67
2018-02-10T17:32:09.691Z,3.23
2018-02-10T17:34:40.368Z,1.37
2018-02-10T17:37:09.516Z,4.03
2018-02-10T17:39:37.547Z,3.60
2018-02-10T17:42:05.223Z,1.60
2018-02-10T17:44:34.180Z,2.97
2018-02-10T17:47:02.440Z,1.37
2018-02-10T17:49:30.742Z,2.53
2018-02-10T17:51:59.162Z,1.27
2018-02-10T17:54:28.155Z,2.60
2018-02-10T17:56:58.853Z,2.77
2018-02-10T17:59:27.272Z,0.90
2018-02-10T18:01:56.274Z,3.40
2018-02-10T18:04:26.634Z,1.53
2018-02-10T18:06:54.876Z,0.87
2018-02-10T18:09:24.357Z,1.63
2018-02-10T18:11:54.587Z,1.67
2018-02-10T18:14:23.695Z,4.83
2018-02-10T18:16:51.424Z,1.43
2018-02-10T18:19:22.318Z,0.93
2018-02-10T18:21:50.691Z,1.30
2018-02-10T18:24:19.224Z,1.10
2018-02-10T18:26:47.325Z,6.10
2018-02-10T18:29:15.509Z,2.57
2018-02-10T18:31:46.274Z,3.03
2018-02-10T18:34:14.653Z,2.67
2018-02-10T18:36:45.114Z,3.00
2018-02-10T18:39:15.425Z,5.17
2018-02-10T18:41:46.923Z,4.30
2018-02-10T18:44:15.607Z,4.50
2018-02-10T18:46:43.893Z,2.07
2018-02-10T18:49:13.166Z,2.50
2018-02-10T18:51:42.638Z,3.80
2018-02-10T18:54:11.199Z,2.37
2018-02-10T18:56:39.495Z,4.80
2018-02-10T18:59:07.713Z,3.63
2018-02-10T19:01:35.930Z,4.70
2018-02-10T19:04:05.253Z,2.70
2018-02-10T19:06:34.360Z,2.67
2018-02-10T19:09:03.503Z,2.90
2018-02-10T19:11:31.567Z,2.83
2018-02-10T19:14:00.011Z,3.73
2018-02-10T19:16:28.190Z,2.37
2018-02-10T19:18:56.372Z,5.73
2018-02-10T19:21:26.862Z,3.47
2018-02-10T19:23:55.166Z,2.70
2018-02-10T19:26:23.126Z,5.87
2018-02-10T19:28:52.396Z,3.90
2018-02-10T19:31:20.935Z,3.10
2018-02-10T19:33:50.990Z,5.63
2018-02-10T19:36:19.596Z,4.53
2018-02-10T19:38:48.007Z,3.07
2018-02-10T19:41:16.561Z,4.83
2018-02-10T19:43:44.909Z,4.33
2018-02-10T19:46:13.811Z,8.53
2018-02-10T19:48:42.494Z,5.17
2018-02-10T19:51:10.955Z,6.53
2018-02-10T19:53:39.343Z,3.17
2018-02-10T19:56:08.672Z,8.10
2018-02-10T19:58:37.051Z,17.47
2018-02-10T20:01:05.417Z,20.63
2018-02-10T20:03:34.013Z,9.50
2018-02-10T20:06:02.225Z,9.30
2018-02-10T20:08:33.406Z,7.80
2018-02-10T20:11:01.686Z,17.20
2018-02-10T20:13:30.555Z,14.53
2018-02-10T20:15:58.846Z,10.47
2018-02-10T20:18:29.319Z,10.67
2018-02-10T20:20:57.180Z,10.93
2018-02-10T20:23:25.604Z,3.77
2018-02-10T20:25:53.611Z,2.83
2018-02-10T20:28:21.784Z,8.00
2018-02-10T20:30:50.019Z,5.80
2018-02-10T20:33:17.939Z,6.93
2018-02-10T20:35:47.031Z,4.27
2018-02-10T20:38:16.478Z,4.20
2018-02-10T20:40:45.330Z,4.03
2018-02-10T20:43:13.679Z,2.60
2018-02-10T20:45:42.098Z,3.67
2018-02-10T20:48:09.840Z,2.40
2018-02-10T20:50:38.358Z,3.80
2018-02-10T20:53:06.864Z,2.27
2018-02-10T20:55:35.401Z,2.40
2018-02-10T20:58:06.757Z,2.70
2018-02-10T21:00:34.920Z,3.33
2018-02-10T21:03:03.172Z,2.33
2018-02-10T21:05:32.048Z,2.30
2018-02-10T21:08:00.032Z,2.23
2018-02-10T21:10:28.228Z,2.37
2018-02-10T21:12:57.591Z,1.83
2018-02-10T21:15:27.339Z,2.17
2018-02-10T21:17:59.624Z,2.33
2018-02-10T21:20:27.632Z,2.83
2018-02-10T21:22:56.122Z,1.60
2018-02-10T21:25:24.297Z,1.90
2018-02-10T21:27:52.414Z,3.23
2018-02-10T21:30:23.125Z,2.63
2018-02-10T21:32:52.188Z,3.67
2018-02-10T21:35:21.388Z,2.03
2018-02-10T21:37:52.307Z,1.97
2018-02-10T21:40:21.386Z,2.07
2018-02-10T21:42:50.443Z,1.90
2018-02-10T21:45:18.682Z,1.00
2018-02-10T21:47:47.054Z,2.23
2018-02-10T21:50:15.469Z,1.00
2018-02-10T21:52:44.573Z,2.40
2018-02-10T21:55:12.688Z,1.57
2018-02-10T21:57:40.395Z,1.40
2018-02-10T22:00:10.263Z,1.10
2018-02-10T22:02:38.812Z,1.70
2018-02-10T22:05:07.071Z,2.60
2018-02-10T22:07:36.474Z,2.40
2018-02-10T22:10:06.525Z,0.70
2018-02-10T22:12:35.757Z,2.90
2018-02-10T22:15:07.165Z,2.93
2018-02-10T22:17:35.679Z,1.80
2018-02-10T22:20:04.969Z,4.43
2018-02-10T22:22:33.231Z,3.27
2018-02-10T22:25:03.419Z,5.60
2018-02-10T22:27:32.000Z,4.50
2018-02-10T22:30:01.420Z,6.00
2018-02-10T22:32:29.076Z,7.17
2018-02-10T22:34:57.392Z,12.77
2018-02-10T22:37:25.795Z,15.00
2018-02-10T22:39:54.178Z,7.97
2018-02-10T22:42:23.082Z,13.13
2018-02-10T22:44:51.322Z,20.03
2018-02-10T22:47:20.192Z,5.93
2018-02-10T22:49:56.985Z,11.77
2018-02-10T22:52:27.823Z,15.47
2018-02-10T22:54:57.466Z,11.23
2018-02-10T22:57:26.415Z,15.67
2018-02-10T22:59:55.049Z,17.20
2018-02-10T23:02:23.467Z,25.43
2018-02-10T23:04:51.827Z,20.67
2018-02-10T23:07:19.996Z,22.97
2018-02-10T23:09:48.231Z,24.70
2018-02-10T23:12:16.565Z,23.03
2018-02-10T23:14:45.490Z,26.23
2018-02-10T23:17:19.047Z,22.37
2018-02-10T23:19:47.461Z,27.17
2018-02-10T23:22:16.187Z,30.77
2018-02-10T23:24:44.386Z,25.83
2018-02-10T23:27:18.809Z,26.53
2018-02-10T23:29:50.174Z,14.47
2018-02-10T23:32:18.397Z,22.53
2018-02-10T23:34:47.145Z,14.20
2018-02-10T23:37:20.084Z,22.77
2018-02-10T23:39:47.972Z,17.40
2018-02-10T23:42:21.785Z,22.40
2018-02-10T23:44:51.981Z,11.43
2018-02-10T23:47:22.021Z,12.87
2018-02-10T23:49:56.271Z,9.57
2018-02-10T23:52:29.209Z,11.80
2018-02-10T23:54:57.511Z,14.00
2018-02-10T23:57:26.596Z,10.37
2018-02-10T23:59:55.713Z,7.23
